createdAt,value
2023-09-27T00:01:00.645Z,14.00
2023-09-27T00:03:27.390Z,15.95
2023-09-27T00:05:54.238Z,18.10
2023-09-27T00:08:21.089Z,15.88
2023-09-27T00:10:47.811Z,16.33
2023-09-27T00:13:14.473Z,14.77
2023-09-27T00:15:41.548Z,15.00
2023-09-27T00:18:08.189Z,15.27
2023-09-27T00:20:34.760Z,15.27
2023-09-27T00:23:01.893Z,16.52
2023-09-27T00:25:28.536Z,15.52
2023-09-27T00:27:55.103Z,18.27
2023-09-27T00:30:21.829Z,17.85
2023-09-27T00:32:48.620Z,15.18
2023-09-27T00:35:22.959Z,16.17
2023-09-27T00:37:50.563Z,14.98
2023-09-27T00:40:19.983Z,14.02
2023-09-27T00:42:49.193Z,13.82
2023-09-27T00:45:16.628Z,13.75
2023-09-27T00:47:43.305Z,17.13
2023-09-27T00:50:12.747Z,15.38
2023-09-27T00:52:40.602Z,15.23
2023-09-27T00:55:08.875Z,21.20
2023-09-27T00:57:35.917Z,14.02
2023-09-27T01:00:03.370Z,17.60
2023-09-27T01:02:30.649Z,20.05
2023-09-27T01:04:57.306Z,17.90
2023-09-27T01:07:24.886Z,17.90
2023-09-27T01:09:51.469Z,13.98
2023-09-27T01:12:18.290Z,19.63
2023-09-27T01:14:45.607Z,16.58
2023-09-27T01:17:12.791Z,13.02
2023-09-27T01:19:46.546Z,18.30
2023-09-27T01:22:13.277Z,17.98
2023-09-27T01:24:40.231Z,28.27
2023-09-27T01:27:07.639Z,18.52
2023-09-27T01:29:34.674Z,14.15
2023-09-27T01:32:01.446Z,17.55
2023-09-27T01:34:28.188Z,15.95
2023-09-27T01:36:55.687Z,15.82
2023-09-27T01:39:22.372Z,17.88
2023-09-27T01:41:48.972Z,14.02
2023-09-27T01:44:15.603Z,23.92
2023-09-27T01:46:42.460Z,17.08
2023-09-27T01:49:09.091Z,14.27
2023-09-27T01:51:35.862Z,19.67
2023-09-27T01:54:03.717Z,20.00
2023-09-27T01:56:30.381Z,15.02
2023-09-27T01:58:57.319Z,16.25
2023-09-27T02:01:23.935Z,17.95
2023-09-27T02:03:51.263Z,21.30
2023-09-27T02:06:17.932Z,17.77
2023-09-27T02:08:44.688Z,21.60
2023-09-27T02:11:11.734Z,16.50
2023-09-27T02:13:38.297Z,18.73
2023-09-27T02:16:05.240Z,19.65
2023-09-27T02:18:31.820Z,21.17
2023-09-27T02:20:58.585Z,17.60
2023-09-27T02:23:25.349Z,19.02
2023-09-27T02:25:59.155Z,19.33
2023-09-27T02:28:26.443Z,17.15
2023-09-27T02:30:53.309Z,20.73
2023-09-27T02:33:20.183Z,18.63
2023-09-27T02:35:46.812Z,20.60
2023-09-27T02:38:13.999Z,15.82
2023-09-27T02:40:41.448Z,18.02
2023-09-27T02:43:08.082Z,19.63
2023-09-27T02:45:35.598Z,15.05
2023-09-27T02:48:02.952Z,18.30
2023-09-27T02:50:29.793Z,19.13
2023-09-27T02:52:56.428Z,21.85
2023-09-27T02:55:23.142Z,17.08
2023-09-27T02:57:54.263Z,19.45
2023-09-27T03:00:22.888Z,19.00
2023-09-27T03:02:49.798Z,17.42
2023-09-27T03:05:16.852Z,16.10
2023-09-27T03:07:46.252Z,21.40
2023-09-27T03:10:13.339Z,20.65
2023-09-27T03:12:40.974Z,18.60
2023-09-27T03:15:12.669Z,15.90
2023-09-27T03:17:41.007Z,22.42
2023-09-27T03:20:15.602Z,15.82
2023-09-27T03:22:43.170Z,21.80
2023-09-27T03:25:11.143Z,19.25
2023-09-27T03:27:37.971Z,20.45
2023-09-27T03:30:05.550Z,18.33
2023-09-27T03:32:33.363Z,18.23
2023-09-27T03:35:03.306Z,18.30
2023-09-27T03:37:29.962Z,18.02
2023-09-27T03:39:57.295Z,19.17
2023-09-27T03:42:24.082Z,16.88
2023-09-27T03:44:51.380Z,19.55
2023-09-27T03:47:18.149Z,18.95
2023-09-27T03:49:45.173Z,22.15
2023-09-27T03:52:11.812Z,18.77
2023-09-27T03:54:38.486Z,21.15
2023-09-27T03:57:05.262Z,17.05
2023-09-27T03:59:32.634Z,20.13
2023-09-27T04:01:59.494Z,19.08
2023-09-27T04:04:26.407Z,18.17
2023-09-27T04:06:53.300Z,20.63
2023-09-27T04:09:20.219Z,19.55
2023-09-27T04:11:46.884Z,16.88
2023-09-27T04:14:13.682Z,17.50
2023-09-27T04:16:40.274Z,19.33
2023-09-27T04:19:07.106Z,18.92
2023-09-27T04:21:33.737Z,17.92
2023-09-27T04:24:01.102Z,19.63
2023-09-27T04:26:28.328Z,24.23
2023-09-27T04:28:55.040Z,15.93
2023-09-27T04:31:21.765Z,19.45
2023-09-27T04:33:48.889Z,18.48
2023-09-27T04:36:19.247Z,18.38
2023-09-27T04:38:46.875Z,19.17
2023-09-27T04:41:17.141Z,14.45
2023-09-27T04:43:44.240Z,15.45
2023-09-27T04:46:14.865Z,21.83
2023-09-27T04:48:41.522Z,12.15
2023-09-27T04:51:08.509Z,17.70
2023-09-27T04:53:38.711Z,18.23
2023-09-27T04:56:09.220Z,15.85
2023-09-27T04:58:38.622Z,16.10
2023-09-27T05:01:07.374Z,14.13
2023-09-27T05:03:34.725Z,17.55
2023-09-27T05:06:01.528Z,17.27
2023-09-27T05:08:28.459Z,19.48
2023-09-27T05:10:56.139Z,14.13
2023-09-27T05:13:23.244Z,16.90
2023-09-27T05:15:50.749Z,16.08
2023-09-27T05:18:17.536Z,14.32
2023-09-27T05:20:47.187Z,12.55
2023-09-27T05:23:13.904Z,15.68
2023-09-27T05:25:40.700Z,12.88
2023-09-27T05:28:07.516Z,13.82
2023-09-27T05:30:34.451Z,12.75
2023-09-27T05:33:01.090Z,16.73
2023-09-27T05:35:27.964Z,12.85
2023-09-27T05:37:54.638Z,15.85
2023-09-27T05:40:21.393Z,16.08
2023-09-27T05:42:47.954Z,13.20
2023-09-27T05:45:15.183Z,14.73
2023-09-27T05:47:42.360Z,13.15
2023-09-27T05:50:10.011Z,15.30
2023-09-27T05:52:37.068Z,10.20
2023-09-27T05:55:07.042Z,14.02
2023-09-27T05:57:34.330Z,15.25
2023-09-27T06:00:01.890Z,11.15
2023-09-27T06:02:34.980Z,11.18
2023-09-27T06:05:02.607Z,14.18
2023-09-27T06:07:29.333Z,16.80
2023-09-27T06:09:55.914Z,10.98
2023-09-27T06:12:22.612Z,9.50
2023-09-27T06:14:49.740Z,9.07
2023-09-27T06:17:18.530Z,9.30
2023-09-27T06:19:45.909Z,14.77
2023-09-27T06:22:16.835Z,9.65
2023-09-27T06:27:10.133Z,9.65
2023-09-27T06:29:36.766Z,9.55
2023-09-27T06:32:03.968Z,10.40
2023-09-27T06:34:30.968Z,15.73
2023-09-27T06:36:57.926Z,11.23
2023-09-27T06:39:27.561Z,10.23
2023-09-27T06:41:54.291Z,7.72
2023-09-27T06:44:20.988Z,8.23
2023-09-27T06:46:49.567Z,9.77
2023-09-27T06:49:18.249Z,14.00
2023-09-27T06:51:45.534Z,13.27
2023-09-27T06:54:12.376Z,11.23
2023-09-27T06:56:39.124Z,11.88
2023-09-27T06:59:07.032Z,12.75
2023-09-27T07:01:33.973Z,11.20
2023-09-27T07:04:00.845Z,9.93
2023-09-27T07:06:27.642Z,18.95
2023-09-27T07:08:59.361Z,11.05
2023-09-27T07:11:26.488Z,13.30
2023-09-27T07:13:53.736Z,8.95
2023-09-27T07:16:27.751Z,11.63
2023-09-27T07:18:55.489Z,9.68
2023-09-27T07:21:22.772Z,9.77
2023-09-27T07:23:50.613Z,13.27
2023-09-27T07:26:17.867Z,10.88
2023-09-27T07:28:45.080Z,9.80
2023-09-27T07:31:12.769Z,8.10
2023-09-27T07:33:39.659Z,10.25
2023-09-27T07:36:10.188Z,9.32
2023-09-27T07:38:38.693Z,8.73
2023-09-27T07:41:06.094Z,9.35
2023-09-27T07:43:32.795Z,14.18
2023-09-27T07:46:01.476Z,11.10
2023-09-27T07:48:28.234Z,13.65
2023-09-27T07:50:55.748Z,9.55
2023-09-27T07:53:22.378Z,10.93
2023-09-27T07:55:52.022Z,10.77
2023-09-27T07:58:18.951Z,9.75
2023-09-27T08:00:45.591Z,9.35
2023-09-27T08:03:12.593Z,11.50
2023-09-27T08:05:45.066Z,8.88
2023-09-27T08:08:12.735Z,15.15
2023-09-27T08:10:44.949Z,10.20
2023-09-27T08:13:12.868Z,10.45
2023-09-27T08:15:39.921Z,8.60
2023-09-27T08:18:06.739Z,9.93
2023-09-27T08:20:33.766Z,8.48
2023-09-27T08:23:00.884Z,11.20
2023-09-27T08:25:27.640Z,11.20
2023-09-27T08:27:54.270Z,12.27
2023-09-27T08:30:22.273Z,7.57
2023-09-27T08:32:49.561Z,11.25
2023-09-27T08:35:16.389Z,11.07
2023-09-27T08:37:43.133Z,10.27
2023-09-27T08:40:16.599Z,9.73
2023-09-27T08:42:44.849Z,9.60
2023-09-27T08:45:15.609Z,9.15
2023-09-27T08:47:43.998Z,9.68
2023-09-27T08:50:12.887Z,11.02
2023-09-27T08:52:39.574Z,8.95
2023-09-27T08:55:08.251Z,7.10
2023-09-27T08:57:36.735Z,16.08
2023-09-27T09:00:08.489Z,10.45
2023-09-27T09:02:37.235Z,12.00
2023-09-27T09:05:05.815Z,7.25
2023-09-27T09:07:32.411Z,12.10
2023-09-27T09:09:59.136Z,10.15
2023-09-27T09:12:27.084Z,8.82
2023-09-27T09:14:56.283Z,7.55
2023-09-27T09:17:35.621Z,12.13
2023-09-27T09:20:23.646Z,10.77
2023-09-27T09:22:55.013Z,8.55
2023-09-27T09:25:23.062Z,8.48
2023-09-27T09:28:02.446Z,7.65
2023-09-27T09:30:39.319Z,8.57
2023-09-27T09:33:38.230Z,13.25
2023-09-27T09:36:05.311Z,9.90
2023-09-27T09:38:32.462Z,8.65
2023-09-27T09:41:00.371Z,8.90
2023-09-27T09:43:37.993Z,8.25
2023-09-27T09:46:07.991Z,9.15
2023-09-27T09:48:35.530Z,9.32
2023-09-27T09:51:04.580Z,9.65
2023-09-27T09:53:31.422Z,7.95
2023-09-27T09:56:28.725Z,9.60
2023-09-27T10:01:27.704Z,6.05
2023-09-27T10:03:54.858Z,6.40
2023-09-27T10:06:36.566Z,8.50
2023-09-27T10:09:16.201Z,12.65
2023-09-27T10:11:44.524Z,11.38
2023-09-27T10:14:12.011Z,5.63
2023-09-27T10:16:39.224Z,10.82
2023-09-27T10:19:06.955Z,8.52
2023-09-27T10:21:33.662Z,11.13
2023-09-27T10:24:05.067Z,10.07
2023-09-27T10:26:33.883Z,8.38
2023-09-27T10:29:10.930Z,5.45
2023-09-27T10:31:39.436Z,6.03
2023-09-27T10:34:29.405Z,5.03
2023-09-27T10:37:15.009Z,6.68
2023-09-27T10:40:03.312Z,8.88
2023-09-27T10:42:45.081Z,8.07
2023-09-27T10:45:11.973Z,6.03
2023-09-27T10:47:38.633Z,8.35
2023-09-27T10:50:05.841Z,8.15
2023-09-27T10:52:32.636Z,8.48
2023-09-27T10:55:12.335Z,7.60
2023-09-27T10:57:40.744Z,11.25
2023-09-27T11:00:13.761Z,9.38
2023-09-27T11:02:40.779Z,4.82
2023-09-27T11:05:08.402Z,10.52
2023-09-27T11:07:48.715Z,8.48
2023-09-27T11:10:19.884Z,7.03
2023-09-27T11:12:46.680Z,9.27
2023-09-27T11:15:22.444Z,5.53
2023-09-27T11:17:55.079Z,6.80
2023-09-27T11:20:24.762Z,6.88
2023-09-27T11:25:29.061Z,7.63
2023-09-27T11:27:55.889Z,5.40
2023-09-27T11:30:29.538Z,6.82
2023-09-27T11:32:56.253Z,10.63
2023-09-27T11:35:24.614Z,5.63
2023-09-27T11:38:04.280Z,7.57
2023-09-27T11:40:34.909Z,7.13
2023-09-27T11:43:02.535Z,9.30
2023-09-27T11:45:29.141Z,10.10
2023-09-27T11:47:55.948Z,9.73
2023-09-27T11:50:23.477Z,8.77
2023-09-27T11:52:52.786Z,7.53
2023-09-27T11:55:20.261Z,7.00
2023-09-27T11:57:47.985Z,11.75
2023-09-27T12:00:16.965Z,8.68
2023-09-27T12:02:56.576Z,11.32
2023-09-27T12:05:24.455Z,9.17
2023-09-27T12:07:51.766Z,7.57
2023-09-27T12:10:18.542Z,7.25
2023-09-27T12:12:45.101Z,8.23
2023-09-27T12:15:11.886Z,5.70
2023-09-27T12:17:39.271Z,6.22
2023-09-27T12:20:13.281Z,6.68
2023-09-27T12:22:45.900Z,8.23
2023-09-27T12:25:12.801Z,12.32
2023-09-27T12:27:39.491Z,9.55
2023-09-27T12:30:06.660Z,7.40
2023-09-27T12:32:33.428Z,10.30
2023-09-27T12:35:00.195Z,5.78
2023-09-27T12:37:27.261Z,5.90
2023-09-27T12:39:53.820Z,11.88
2023-09-27T12:42:20.378Z,9.02
2023-09-27T12:44:47.026Z,6.25
2023-09-27T12:47:15.895Z,14.63
2023-09-27T12:49:42.586Z,5.72
2023-09-27T12:52:09.230Z,10.77
2023-09-27T12:54:35.785Z,9.48
2023-09-27T12:57:02.563Z,9.88
2023-09-27T12:59:29.362Z,9.30
2023-09-27T13:01:56.210Z,8.60
2023-09-27T13:04:22.887Z,7.65
2023-09-27T13:06:49.829Z,7.68
2023-09-27T13:09:18.800Z,11.20
2023-09-27T13:11:45.587Z,9.15
2023-09-27T13:14:12.334Z,10.23
2023-09-27T13:16:38.982Z,7.22
2023-09-27T13:19:06.008Z,8.00
2023-09-27T13:21:32.833Z,6.78
2023-09-27T13:23:59.457Z,8.60
2023-09-27T13:26:27.567Z,6.45
2023-09-27T13:28:54.553Z,9.65
2023-09-27T13:31:21.578Z,9.77
2023-09-27T13:33:58.816Z,9.55
2023-09-27T13:36:26.070Z,9.75
2023-09-27T13:38:53.652Z,10.32
2023-09-27T13:41:21.385Z,9.30
2023-09-27T13:43:48.916Z,8.20
2023-09-27T13:46:15.480Z,10.82
2023-09-27T13:48:42.231Z,11.75
2023-09-27T13:51:08.842Z,8.32
2023-09-27T13:53:35.479Z,11.80
2023-09-27T13:56:03.048Z,6.82
2023-09-27T13:58:29.696Z,8.48
2023-09-27T14:00:56.435Z,10.95
2023-09-27T14:03:23.262Z,9.63
2023-09-27T14:05:50.111Z,6.60
2023-09-27T14:08:16.966Z,15.63
2023-09-27T14:10:43.732Z,8.40
2023-09-27T14:13:10.603Z,9.93
2023-09-27T14:15:37.317Z,8.43
2023-09-27T14:18:05.756Z,7.32
2023-09-27T14:20:32.440Z,8.55
2023-09-27T14:22:59.666Z,14.20
2023-09-27T14:25:27.869Z,12.43
2023-09-27T14:27:54.579Z,9.00
2023-09-27T14:30:21.452Z,10.55
2023-09-27T14:32:48.802Z,14.32
2023-09-27T14:35:15.685Z,7.65
2023-09-27T14:37:42.719Z,7.07
2023-09-27T14:40:11.120Z,9.13
2023-09-27T14:42:39.147Z,9.80
2023-09-27T14:45:10.920Z,12.02
2023-09-27T14:47:43.905Z,11.25
2023-09-27T14:50:11.150Z,8.35
2023-09-27T14:52:37.782Z,8.30
2023-09-27T14:55:04.928Z,9.40
2023-09-27T14:57:31.766Z,10.48
2023-09-27T14:59:58.588Z,15.27
2023-09-27T15:02:25.279Z,8.27
2023-09-27T15:04:52.130Z,15.88
2023-09-27T15:07:20.959Z,11.00
2023-09-27T15:09:47.785Z,8.98
2023-09-27T15:12:14.522Z,12.85
2023-09-27T15:14:41.674Z,11.38
2023-09-27T15:17:09.316Z,11.60
2023-09-27T15:19:36.124Z,12.90
2023-09-27T15:22:05.011Z,11.82
2023-09-27T15:24:32.288Z,12.27
2023-09-27T15:26:59.229Z,8.40
2023-09-27T15:29:25.833Z,10.02
2023-09-27T15:31:53.367Z,11.57
2023-09-27T15:34:20.331Z,15.82
2023-09-27T15:36:47.549Z,10.00
2023-09-27T15:39:14.151Z,12.10
2023-09-27T15:41:40.882Z,11.32
2023-09-27T15:44:08.439Z,10.40
2023-09-27T15:46:39.304Z,8.82
2023-09-27T15:49:05.970Z,13.25
2023-09-27T15:51:32.667Z,10.48
2023-09-27T15:54:11.418Z,9.32
2023-09-27T15:56:44.294Z,10.95
2023-09-27T15:59:11.352Z,11.90
2023-09-27T16:01:39.448Z,10.27
2023-09-27T16:04:08.591Z,11.23
2023-09-27T16:06:35.541Z,16.20
2023-09-27T16:09:02.116Z,15.10
2023-09-27T16:11:29.002Z,12.02
2023-09-27T16:13:55.910Z,14.90
2023-09-27T16:16:22.712Z,12.50
2023-09-27T16:21:30.322Z,12.77
2023-09-27T16:23:58.572Z,12.85
2023-09-27T16:26:25.568Z,15.30
2023-09-27T16:28:52.465Z,14.02
2023-09-27T16:31:19.775Z,14.63
2023-09-27T16:33:48.262Z,13.02
2023-09-27T16:36:18.553Z,10.25
2023-09-27T16:38:45.300Z,15.15
2023-09-27T16:41:12.131Z,10.98
2023-09-27T16:43:41.132Z,13.65
2023-09-27T16:46:08.857Z,13.40
2023-09-27T16:48:36.319Z,11.88
2023-09-27T16:51:04.256Z,13.27
2023-09-27T16:53:30.879Z,11.32
2023-09-27T16:55:57.726Z,12.13
2023-09-27T16:58:27.002Z,13.80
2023-09-27T17:00:53.736Z,10.40
2023-09-27T17:03:21.104Z,12.27
2023-09-27T17:05:48.885Z,12.27
2023-09-27T17:08:16.765Z,12.43
2023-09-27T17:10:45.828Z,15.20
2023-09-27T17:13:12.641Z,14.07
2023-09-27T17:15:42.638Z,15.23
2023-09-27T17:18:09.289Z,12.25
2023-09-27T17:20:36.163Z,11.40
2023-09-27T17:23:02.871Z,15.43
2023-09-27T17:25:29.503Z,16.75
2023-09-27T17:27:56.333Z,15.05
2023-09-27T17:30:23.419Z,16.27
2023-09-27T17:32:50.148Z,12.63
2023-09-27T17:35:17.234Z,30.90
2023-09-27T17:37:44.824Z,41.63
2023-09-27T17:40:11.644Z,40.78
2023-09-27T17:42:39.791Z,39.50
2023-09-27T17:45:06.718Z,25.75
2023-09-27T17:47:35.084Z,18.95
2023-09-27T17:50:02.186Z,12.40
2023-09-27T17:52:28.862Z,15.65
2023-09-27T17:54:55.719Z,16.30
2023-09-27T17:57:23.061Z,17.30
2023-09-27T18:00:04.694Z,19.83
2023-09-27T18:02:33.710Z,25.23
2023-09-27T18:05:00.716Z,25.98
2023-09-27T18:07:27.613Z,30.10
2023-09-27T18:09:54.358Z,30.88
2023-09-27T18:12:20.957Z,30.35
2023-09-27T18:14:47.520Z,28.92
2023-09-27T18:17:14.121Z,21.52
2023-09-27T18:19:40.944Z,22.67
2023-09-27T18:22:07.518Z,20.05
2023-09-27T18:24:34.103Z,20.65
2023-09-27T18:27:00.806Z,18.20
2023-09-27T18:29:27.365Z,14.48
2023-09-27T18:31:54.001Z,14.15
2023-09-27T18:34:20.727Z,16.90
2023-09-27T18:36:47.345Z,13.95
2023-09-27T18:39:14.600Z,16.98
2023-09-27T18:41:41.406Z,15.48
2023-09-27T18:44:08.014Z,14.05
2023-09-27T18:46:35.574Z,15.48
2023-09-27T18:49:03.366Z,12.82
2023-09-27T18:51:29.983Z,18.05
2023-09-27T18:53:56.562Z,8.80
2023-09-27T18:56:23.268Z,16.75
2023-09-27T18:58:50.031Z,13.88
2023-09-27T19:01:17.223Z,13.18
2023-09-27T19:03:43.907Z,12.88
2023-09-27T19:06:15.955Z,14.57
2023-09-27T19:08:43.000Z,16.17
2023-09-27T19:11:09.774Z,19.70
2023-09-27T19:13:37.886Z,15.95
2023-09-27T19:16:06.711Z,14.38
2023-09-27T19:18:36.114Z,13.02
2023-09-27T19:21:02.764Z,13.77
2023-09-27T19:23:29.429Z,11.05
2023-09-27T19:25:58.348Z,12.00
2023-09-27T19:28:25.570Z,13.32
2023-09-27T19:30:52.319Z,12.45
2023-09-27T19:33:18.938Z,10.82
2023-09-27T19:35:46.148Z,12.10
2023-09-27T19:38:13.351Z,14.50
2023-09-27T19:40:40.169Z,14.13
2023-09-27T19:43:07.007Z,13.40
2023-09-27T19:45:33.617Z,12.38
2023-09-27T19:48:00.426Z,12.73
2023-09-27T19:50:27.122Z,13.73
2023-09-27T19:52:53.782Z,11.07
2023-09-27T19:55:20.519Z,12.73
2023-09-27T19:57:47.753Z,10.27
2023-09-27T20:00:18.732Z,13.55
2023-09-27T20:02:46.670Z,12.73
2023-09-27T20:05:13.810Z,9.77
2023-09-27T20:07:41.547Z,12.57
2023-09-27T20:10:09.160Z,10.90
2023-09-27T20:12:35.876Z,10.23
2023-09-27T20:15:02.540Z,12.05
2023-09-27T20:17:29.262Z,13.63
2023-09-27T20:19:56.110Z,10.27
2023-09-27T20:22:23.163Z,8.60
2023-09-27T20:24:49.897Z,13.48
2023-09-27T20:27:16.957Z,13.10
2023-09-27T20:29:43.982Z,11.50
2023-09-27T20:32:10.644Z,16.08
2023-09-27T20:34:37.964Z,18.23
2023-09-27T20:37:04.632Z,11.77
2023-09-27T20:39:31.321Z,15.38
2023-09-27T20:42:00.193Z,19.33
2023-09-27T20:44:28.008Z,13.07
2023-09-27T20:46:54.660Z,8.73
2023-09-27T20:49:21.777Z,10.10
2023-09-27T20:51:48.342Z,13.52
2023-09-27T20:54:15.052Z,10.77
2023-09-27T20:56:42.123Z,12.85
2023-09-27T20:59:09.534Z,9.10
2023-09-27T21:01:42.352Z,14.05
2023-09-27T21:04:09.247Z,10.50
2023-09-27T21:06:35.925Z,8.70
2023-09-27T21:09:04.447Z,11.90
2023-09-27T21:11:31.511Z,13.88
2023-09-27T21:13:59.604Z,8.77
2023-09-27T21:16:27.786Z,9.15
2023-09-27T21:18:55.001Z,8.00
2023-09-27T21:21:22.894Z,11.25
2023-09-27T21:23:49.660Z,15.45
2023-09-27T21:26:16.320Z,17.05
2023-09-27T21:28:43.084Z,10.30
2023-09-27T21:31:16.324Z,16.05
2023-09-27T21:33:44.861Z,12.35
2023-09-27T21:36:12.023Z,10.75
2023-09-27T21:38:41.813Z,13.65
2023-09-27T21:41:08.594Z,12.40
2023-09-27T21:43:35.393Z,11.73
2023-09-27T21:46:02.554Z,13.40
2023-09-27T21:48:30.043Z,12.45
2023-09-27T21:50:56.629Z,13.80
2023-09-27T21:53:23.288Z,14.63
2023-09-27T21:55:49.988Z,13.23
2023-09-27T21:58:17.188Z,16.08
2023-09-27T22:00:43.873Z,17.60
2023-09-27T22:03:13.230Z,16.23
2023-09-27T22:05:40.387Z,11.70
2023-09-27T22:08:14.516Z,11.55
2023-09-27T22:10:44.005Z,9.00
2023-09-27T22:13:23.628Z,11.50
2023-09-27T22:15:54.587Z,9.38
2023-09-27T22:18:21.986Z,12.82
2023-09-27T22:20:49.131Z,10.52
2023-09-27T22:23:19.179Z,8.50
2023-09-27T22:25:48.605Z,10.38
2023-09-27T22:28:20.364Z,10.88
2023-09-27T22:30:49.592Z,11.20
2023-09-27T22:33:20.010Z,13.40
2023-09-27T22:35:52.677Z,15.40
2023-09-27T22:38:19.934Z,10.13
2023-09-27T22:40:47.520Z,13.55
2023-09-27T22:43:15.223Z,11.98
2023-09-27T22:45:42.476Z,13.13
2023-09-27T22:48:14.452Z,11.10
2023-09-27T22:50:47.513Z,12.43
2023-09-27T22:53:17.682Z,14.43
2023-09-27T22:55:51.684Z,10.10
2023-09-27T22:58:19.596Z,10.65
2023-09-27T23:00:47.040Z,7.97
2023-09-27T23:03:17.134Z,13.52
2023-09-27T23:05:47.439Z,11.10
2023-09-27T23:08:14.098Z,14.60
2023-09-27T23:10:41.387Z,11.38
2023-09-27T23:13:25.389Z,13.23
2023-09-27T23:15:55.421Z,9.77
2023-09-27T23:18:28.631Z,14.75
2023-09-27T23:20:58.927Z,10.30
2023-09-27T23:23:25.973Z,9.10
2023-09-27T23:25:53.585Z,14.07
2023-09-27T23:28:31.429Z,12.68
2023-09-27T23:31:09.544Z,10.07
2023-09-27T23:33:43.791Z,10.50
2023-09-27T23:36:24.664Z,10.98
2023-09-27T23:38:58.711Z,9.57
2023-09-27T23:41:32.521Z,10.68
2023-09-27T23:44:02.405Z,14.07
2023-09-27T23:46:29.174Z,9.75
2023-09-27T23:48:55.872Z,11.85
2023-09-27T23:51:25.680Z,10.07
2023-09-27T23:53:53.414Z,12.80
2023-09-27T23:56:24.221Z,12.70
2023-09-27T23:58:53.416Z,11.20
